Time;durP1;ratioP1;P1;durP2;ratioP2;P2;SDS_P1;SDS_P2;PMS_P1;PMS_P2;Temp;Humidity;BMP_temperature;BMP_pressure;BME280_temperature;BME280_humidity;BME280_pressure;Samples;Min_cycle;Max_cycle;Signal;HPM_P1;HPM_P2
2021/05/17 00:00:14;;;;;;;7.93;5.05;;;14.00;99.90;;;;;;4958842;28;20098;-70
2021/05/17 00:02:42;;;;;;;13.65;6.32;;;14.00;99.90;;;;;;4966374;28;20035;-69
2021/05/17 00:05:09;;;;;;;7.82;5.45;;;14.00;99.90;;;;;;4962641;28;20114;-69
2021/05/17 00:07:36;;;;;;;8.57;5.53;;;14.00;99.90;;;;;;4966336;28;20015;-69
2021/05/17 00:10:04;;;;;;;5.40;4.70;;;14.00;99.90;;;;;;4965178;28;20022;-70
2021/05/17 00:12:30;;;;;;;8.10;5.82;;;13.90;99.90;;;;;;4966117;28;20015;-70
2021/05/17 00:14:55;;;;;;;8.13;5.88;;;13.90;99.90;;;;;;4961563;28;20736;-69
2021/05/17 00:17:22;;;;;;;12.85;6.68;;;13.90;99.90;;;;;;4967419;28;20038;-69
2021/05/17 00:19:47;;;;;;;8.13;5.53;;;13.90;99.90;;;;;;4948777;28;609485;-70
2021/05/17 00:22:13;;;;;;;11.35;6.68;;;13.90;99.90;;;;;;4963075;28;20031;-70
2021/05/17 00:24:39;;;;;;;12.38;5.75;;;13.80;99.90;;;;;;4964624;28;20086;-69
2021/05/17 00:27:05;;;;;;;9.88;5.00;;;13.80;99.90;;;;;;4969284;28;20027;-71
2021/05/17 00:29:31;;;;;;;7.45;5.50;;;13.70;99.90;;;;;;4961179;28;20481;-69
2021/05/17 00:31:57;;;;;;;6.25;4.53;;;13.70;99.90;;;;;;4964342;28;20023;-69
2021/05/17 00:34:23;;;;;;;9.40;5.43;;;13.70;99.90;;;;;;4956560;28;20027;-73
2021/05/17 00:36:49;;;;;;;6.47;5.72;;;13.60;99.90;;;;;;4965345;28;20047;-72
2021/05/17 00:39:16;;;;;;;7.53;4.85;;;13.50;99.90;;;;;;4966747;28;20030;-78
2021/05/17 00:41:42;;;;;;;7.35;5.10;;;13.50;99.90;;;;;;4965239;28;20062;-69
2021/05/17 00:44:09;;;;;;;7.18;5.30;;;13.50;99.90;;;;;;4969410;28;20155;-76
2021/05/17 00:46:37;;;;;;;8.57;5.63;;;13.50;99.90;;;;;;4963432;28;20033;-76
2021/05/17 00:49:03;;;;;;;10.55;4.25;;;13.30;99.90;;;;;;4960840;28;20043;-70
2021/05/17 00:51:32;;;;;;;7.97;4.95;;;13.30;99.90;;;;;;4959424;28;20056;-70
2021/05/17 00:53:58;;;;;;;6.00;4.63;;;13.40;99.90;;;;;;4961287;28;20035;-74
2021/05/17 00:56:24;;;;;;;7.80;4.05;;;13.30;99.90;;;;;;4958979;28;20551;-73
2021/05/17 00:58:50;;;;;;;5.07;3.45;;;13.20;99.90;;;;;;4958391;28;20027;-73
2021/05/17 01:01:17;;;;;;;8.98;4.32;;;13.20;99.90;;;;;;4961352;28;20076;-69
2021/05/17 01:03:43;;;;;;;8.35;4.25;;;13.30;99.90;;;;;;4961104;28;20038;-70
2021/05/17 01:06:10;;;;;;;7.47;3.63;;;13.30;99.90;;;;;;4957502;28;20035;-71
2021/05/17 01:08:47;;;;;;;6.47;4.15;;;13.30;99.90;;;;;;4956982;28;20023;-74
2021/05/17 01:11:13;;;;;;;8.55;4.47;;;13.30;99.90;;;;;;4960552;28;20123;-74
2021/05/17 01:13:41;;;;;;;4.82;4.15;;;13.30;99.90;;;;;;4959728;28;20043;-74
2021/05/17 01:16:07;;;;;;;5.45;3.30;;;13.30;99.90;;;;;;4959058;28;20022;-73
2021/05/17 01:18:37;;;;;;;6.55;3.50;;;13.40;99.90;;;;;;4968406;28;20503;-74
2021/05/17 01:21:03;;;;;;;4.80;3.13;;;13.40;99.90;;;;;;4965856;28;20042;-70
2021/05/17 01:23:32;;;;;;;5.82;3.53;;;13.50;99.90;;;;;;4964344;28;20031;-70
2021/05/17 01:26:00;;;;;;;6.60;3.00;;;13.40;99.90;;;;;;4970567;28;20034;-71
2021/05/17 01:28:28;;;;;;;5.05;3.13;;;13.40;99.90;;;;;;4960345;28;20038;-72
2021/05/17 01:30:57;;;;;;;6.32;3.08;;;13.40;99.90;;;;;;4961739;28;20043;-72
2021/05/17 01:33:23;;;;;;;5.43;3.03;;;13.50;99.90;;;;;;4965291;28;20471;-70
2021/05/17 01:35:50;;;;;;;4.07;2.58;;;13.50;99.90;;;;;;4964866;28;20026;-70
2021/05/17 01:38:18;;;;;;;5.70;2.75;;;13.50;99.90;;;;;;4964551;28;20048;-70
2021/05/17 01:40:46;;;;;;;5.80;2.53;;;13.50;99.90;;;;;;4960648;28;20031;-69
2021/05/17 01:43:13;;;;;;;2.67;2.40;;;13.50;99.90;;;;;;4966573;28;20042;-70
2021/05/17 01:45:40;;;;;;;4.43;2.47;;;13.50;99.90;;;;;;4959124;28;20035;-69
2021/05/17 01:48:06;;;;;;;3.50;1.98;;;13.50;99.90;;;;;;4964427;28;20054;-69
2021/05/17 01:50:33;;;;;;;6.05;2.60;;;13.50;99.90;;;;;;4960784;28;20034;-69
2021/05/17 01:52:59;;;;;;;9.02;2.75;;;13.40;99.90;;;;;;4965910;28;20031;-70
2021/05/17 01:55:25;;;;;;;6.53;2.13;;;13.40;99.90;;;;;;4968637;28;20081;-70
2021/05/17 01:58:22;;;;;;;5.60;2.50;;;13.40;99.90;;;;;;4971096;28;20035;-71
2021/05/17 02:00:48;;;;;;;4.00;2.38;;;13.40;99.90;;;;;;4967517;28;20384;-69
2021/05/17 02:03:14;;;;;;;4.55;2.40;;;13.40;99.90;;;;;;4970471;28;20029;-69
2021/05/17 02:05:40;;;;;;;5.15;2.33;;;13.40;99.90;;;;;;4975108;28;20026;-70
2021/05/17 02:08:10;;;;;;;4.25;2.38;;;13.30;99.90;;;;;;4962062;28;20034;-69
2021/05/17 02:10:35;;;;;;;3.50;2.13;;;13.30;99.90;;;;;;4963211;28;20023;-69
2021/05/17 02:13:03;;;;;;;3.50;2.35;;;13.30;99.90;;;;;;4964397;28;20035;-70
2021/05/17 02:15:30;;;;;;;4.97;2.70;;;13.30;99.90;;;;;;4967923;28;20035;-70
2021/05/17 02:18:14;;;;;;;2.72;2.40;;;13.30;99.90;;;;;;4971095;28;20085;-69
2021/05/17 02:20:42;;;;;;;5.00;2.00;;;13.20;99.90;;;;;;4974169;28;20058;-69
2021/05/17 02:23:13;;;;;;;3.58;2.08;;;13.20;99.90;;;;;;4974935;28;20106;-70
2021/05/17 02:25:43;;;;;;;3.53;1.75;;;13.20;99.90;;;;;;4958028;28;20517;-71
2021/05/17 02:28:10;;;;;;;5.30;2.03;;;13.30;99.90;;;;;;4968894;28;20023;-70
2021/05/17 02:30:37;;;;;;;2.65;2.10;;;13.20;99.90;;;;;;4961821;28;20568;-69
2021/05/17 02:33:04;;;;;;;4.80;1.40;;;13.20;99.90;;;;;;4966716;28;20086;-70
2021/05/17 02:35:30;;;;;;;3.05;1.70;;;13.20;99.90;;;;;;4962997;28;20031;-69
2021/05/17 02:37:56;;;;;;;4.05;2.10;;;13.10;99.90;;;;;;4965409;28;20031;-69
2021/05/17 02:40:23;;;;;;;2.38;1.85;;;13.10;99.90;;;;;;4963021;28;20051;-69
2021/05/17 02:42:49;;;;;;;3.72;1.90;;;13.10;99.90;;;;;;4964677;28;20110;-71
2021/05/17 02:45:18;;;;;;;2.90;1.55;;;13.10;99.90;;;;;;4962195;28;20078;-70
2021/05/17 02:47:44;;;;;;;3.83;1.73;;;13.10;99.90;;;;;;4966363;28;20106;-69
2021/05/17 02:50:12;;;;;;;4.25;2.40;;;13.10;99.90;;;;;;4969860;28;20396;-71
2021/05/17 02:52:39;;;;;;;6.45;1.90;;;13.00;99.90;;;;;;4965588;28;20825;-72
2021/05/17 02:55:12;;;;;;;4.45;1.92;;;13.10;99.90;;;;;;4970520;28;20033;-70
2021/05/17 02:57:48;;;;;;;6.47;2.40;;;13.00;99.90;;;;;;4974111;28;20077;-69
2021/05/17 03:00:22;;;;;;;3.13;1.77;;;13.00;99.90;;;;;;4971764;28;20031;-70
2021/05/17 03:03:24;;;;;;;5.00;2.10;;;13.00;99.90;;;;;;4974863;28;20030;-70
2021/05/17 03:06:01;;;;;;;4.10;2.10;;;13.00;99.90;;;;;;4902123;29;20481;-71
2021/05/17 03:08:39;;;;;;;5.18;2.42;;;13.00;99.90;;;;;;4959563;28;20075;-70
2021/05/17 03:11:06;;;;;;;8.85;2.95;;;12.90;99.90;;;;;;4967682;28;20388;-69
2021/05/17 03:13:33;;;;;;;7.22;2.55;;;13.00;99.90;;;;;;4961905;28;20031;-70
2021/05/17 03:15:59;;;;;;;3.92;2.90;;;13.00;99.90;;;;;;4969011;28;20468;-71
2021/05/17 03:18:25;;;;;;;5.25;3.42;;;13.00;99.90;;;;;;4962687;28;20046;-69
2021/05/17 03:20:51;;;;;;;6.30;3.00;;;13.10;99.90;;;;;;4959345;28;20458;-69
2021/05/17 03:23:17;;;;;;;6.80;3.78;;;13.10;99.90;;;;;;4969632;28;20105;-70
2021/05/17 03:25:46;;;;;;;7.50;3.70;;;13.10;99.90;;;;;;4961747;28;20491;-69
2021/05/17 03:28:13;;;;;;;4.20;3.65;;;13.10;99.90;;;;;;4967086;28;20428;-69
2021/05/17 03:30:38;;;;;;;5.70;3.30;;;13.10;99.90;;;;;;4971287;28;20483;-70
2021/05/17 03:33:04;;;;;;;9.00;3.67;;;13.10;99.90;;;;;;4971846;28;20031;-69
2021/05/17 03:35:30;;;;;;;8.07;3.65;;;13.00;99.90;;;;;;4972487;28;20018;-69
2021/05/17 03:37:56;;;;;;;7.03;3.92;;;13.00;99.90;;;;;;4968709;28;20034;-69
2021/05/17 03:40:21;;;;;;;5.53;3.45;;;13.10;99.90;;;;;;4962018;28;20027;-72
2021/05/17 03:42:47;;;;;;;3.88;3.10;;;13.10;99.90;;;;;;4968332;28;20027;-69
2021/05/17 03:45:15;;;;;;;5.78;3.13;;;13.10;99.90;;;;;;4973597;28;20050;-69
2021/05/17 03:47:41;;;;;;;5.43;3.10;;;13.00;99.90;;;;;;4965516;28;20059;-69
2021/05/17 03:50:09;;;;;;;7.07;4.10;;;12.90;99.90;;;;;;4959380;28;20031;-69
2021/05/17 03:52:34;;;;;;;5.95;3.45;;;12.90;99.90;;;;;;4975104;28;20038;-69
2021/05/17 03:55:00;;;;;;;6.20;3.92;;;13.00;99.90;;;;;;4972109;28;20096;-70
2021/05/17 03:57:26;;;;;;;6.95;2.90;;;12.90;99.90;;;;;;4969619;28;20384;-71
2021/05/17 03:59:52;;;;;;;4.57;3.28;;;12.90;99.90;;;;;;4964142;28;20023;-70
2021/05/17 04:02:20;;;;;;;6.80;3.20;;;13.00;99.90;;;;;;4973709;28;20042;-69
2021/05/17 04:05:30;;;;;;;7.20;3.60;;;13.00;99.90;;;;;;4977098;28;20050;-69
2021/05/17 04:08:11;;;;;;;7.63;2.92;;;13.00;99.90;;;;;;4967043;28;20039;-69
2021/05/17 04:13:23;;;;;;;3.78;2.83;;;13.10;99.90;;;;;;4972642;28;20105;-69
2021/05/17 04:15:51;;;;;;;10.43;3.20;;;13.00;99.90;;;;;;4967367;28;20532;-70
2021/05/17 04:18:17;;;;;;;7.53;3.22;;;13.00;99.90;;;;;;4966195;28;20042;-70
2021/05/17 04:20:43;;;;;;;6.03;2.97;;;13.00;99.90;;;;;;4966702;28;20057;-69
2021/05/17 04:23:09;;;;;;;9.65;3.53;;;13.10;99.90;;;;;;4968505;28;20388;-69
2021/05/17 04:25:35;;;;;;;6.35;2.97;;;13.10;99.90;;;;;;4964809;28;20023;-69
2021/05/17 04:28:00;;;;;;;7.20;3.13;;;13.10;99.90;;;;;;4974360;28;20024;-69
2021/05/17 04:30:26;;;;;;;3.83;2.85;;;13.10;99.90;;;;;;4969604;28;20034;-71
2021/05/17 04:32:52;;;;;;;5.43;2.78;;;13.10;99.90;;;;;;4967901;28;20043;-69
2021/05/17 04:35:17;;;;;;;8.32;3.30;;;13.10;99.90;;;;;;4962995;28;20537;-70
2021/05/17 04:37:43;;;;;;;5.45;2.72;;;13.10;99.90;;;;;;4965318;28;20396;-69
2021/05/17 04:40:09;;;;;;;8.68;3.00;;;13.10;99.90;;;;;;4974567;28;20031;-69
2021/05/17 04:42:35;;;;;;;7.80;3.08;;;13.10;99.90;;;;;;4967555;28;20022;-69
2021/05/17 04:45:01;;;;;;;6.53;3.53;;;13.10;99.90;;;;;;4965383;28;20022;-69
2021/05/17 04:47:27;;;;;;;5.97;2.72;;;13.20;99.90;;;;;;4968626;28;20444;-69
2021/05/17 04:49:53;;;;;;;10.75;2.88;;;13.30;99.90;;;;;;4962747;28;20035;-69
2021/05/17 04:52:18;;;;;;;8.65;3.08;;;13.30;99.90;;;;;;4968772;28;20077;-69
2021/05/17 04:54:44;;;;;;;5.75;2.67;;;13.30;99.90;;;;;;4972881;28;20106;-69
2021/05/17 04:57:10;;;;;;;7.18;3.08;;;13.30;99.90;;;;;;4965157;28;20038;-69
2021/05/17 04:59:37;;;;;;;10.13;3.28;;;13.30;99.90;;;;;;4970448;28;20251;-69
2021/05/17 05:02:04;;;;;;;7.15;3.08;;;13.30;99.90;;;;;;4967685;28;20082;-74
2021/05/17 05:04:30;;;;;;;5.75;2.90;;;13.20;99.90;;;;;;4968513;28;20023;-74
2021/05/17 05:06:57;;;;;;;7.50;2.75;;;13.20;99.90;;;;;;4969742;28;20029;-77
2021/05/17 05:09:22;;;;;;;9.10;2.63;;;13.30;99.90;;;;;;4972095;28;20029;-73
2021/05/17 05:11:48;;;;;;;10.63;2.90;;;13.30;99.90;;;;;;4971651;28;20051;-73
2021/05/17 05:14:13;;;;;;;7.07;2.63;;;13.30;99.90;;;;;;4960275;28;20042;-73
2021/05/17 05:16:39;;;;;;;6.53;2.95;;;13.30;99.90;;;;;;4963924;28;20030;-75
2021/05/17 05:19:04;;;;;;;7.50;2.67;;;13.30;99.90;;;;;;4964211;28;20062;-75
2021/05/17 05:21:30;;;;;;;13.70;3.22;;;13.30;99.90;;;;;;4961245;28;21728;-74
2021/05/17 05:23:55;;;;;;;10.88;3.20;;;13.50;99.90;;;;;;4973720;28;20026;-77
2021/05/17 05:31:40;;;;;;;9.65;3.63;;;13.50;99.90;;;;;;4969898;28;20035;-77
2021/05/17 05:34:06;;;;;;;5.88;2.45;;;13.50;99.90;;;;;;4966498;28;20033;-74
2021/05/17 05:36:32;;;;;;;12.93;2.95;;;13.50;99.90;;;;;;4961608;28;20511;-75
2021/05/17 05:38:59;;;;;;;9.18;2.85;;;13.50;99.90;;;;;;4971364;28;20309;-77
2021/05/17 05:41:24;;;;;;;6.72;2.15;;;13.40;99.90;;;;;;4970164;28;20030;-77
2021/05/17 05:43:50;;;;;;;7.72;2.22;;;13.50;99.90;;;;;;4970606;28;20379;-76
2021/05/17 05:46:16;;;;;;;8.82;3.08;;;13.60;99.90;;;;;;4966353;28;20126;-79
2021/05/17 05:48:47;;;;;;;8.75;2.60;;;13.50;99.90;;;;;;4964963;28;20031;-74
2021/05/17 05:51:18;;;;;;;8.57;2.20;;;13.60;99.90;;;;;;4966074;28;20073;-73
2021/05/17 05:53:44;;;;;;;6.65;2.40;;;13.60;99.90;;;;;;4974727;28;20060;-73
2021/05/17 05:56:10;;;;;;;9.07;2.50;;;13.60;99.90;;;;;;4969362;28;20106;-72
2021/05/17 05:58:36;;;;;;;7.82;2.50;;;13.60;99.90;;;;;;4971545;28;20042;-73
2021/05/17 06:01:01;;;;;;;8.25;2.47;;;13.70;99.90;;;;;;4965656;28;20034;-72
2021/05/17 06:03:27;;;;;;;8.05;2.20;;;13.70;99.90;;;;;;4965225;28;20030;-72
2021/05/17 06:05:53;;;;;;;7.93;2.60;;;13.70;99.90;;;;;;4969537;28;20357;-72
2021/05/17 06:08:19;;;;;;;9.40;3.33;;;13.70;99.90;;;;;;4959820;28;20413;-74
2021/05/17 06:10:44;;;;;;;6.50;2.33;;;13.70;99.90;;;;;;4961663;28;20525;-72
2021/05/17 06:13:10;;;;;;;12.82;2.40;;;13.70;99.90;;;;;;4966696;28;20031;-74
2021/05/17 06:15:39;;;;;;;6.55;2.25;;;13.70;99.90;;;;;;4968296;28;20106;-71
2021/05/17 06:18:05;;;;;;;4.65;1.77;;;13.70;99.90;;;;;;4965923;28;20035;-73
2021/05/17 06:20:31;;;;;;;5.35;1.70;;;13.70;99.90;;;;;;4961563;28;20396;-73
2021/05/17 06:22:57;;;;;;;12.52;2.70;;;13.70;99.90;;;;;;4961648;28;20038;-73
2021/05/17 06:25:23;;;;;;;7.80;2.20;;;13.70;99.90;;;;;;4971493;28;20026;-73
2021/05/17 06:27:49;;;;;;;7.82;2.65;;;13.80;99.90;;;;;;4966314;28;20031;-73
2021/05/17 06:30:17;;;;;;;5.40;1.80;;;13.80;99.90;;;;;;4968597;28;20479;-73
2021/05/17 06:32:45;;;;;;;7.65;1.80;;;13.80;99.90;;;;;;4966014;28;20023;-73
2021/05/17 06:35:12;;;;;;;8.70;1.80;;;13.80;99.90;;;;;;4967078;28;20085;-75
2021/05/17 06:37:38;;;;;;;5.82;2.10;;;13.80;99.90;;;;;;4964247;28;20026;-74
2021/05/17 06:40:05;;;;;;;9.05;2.33;;;13.80;99.90;;;;;;4967218;28;20027;-72
2021/05/17 06:42:31;;;;;;;8.25;2.53;;;13.90;99.90;;;;;;4965872;28;20122;-72
2021/05/17 06:44:56;;;;;;;6.30;1.60;;;13.90;99.90;;;;;;4968349;28;20509;-73
2021/05/17 06:47:22;;;;;;;5.70;1.98;;;13.90;99.90;;;;;;4968973;28;20394;-73
2021/05/17 06:49:48;;;;;;;5.43;1.85;;;14.00;99.90;;;;;;4950814;28;20031;-74
2021/05/17 06:52:15;;;;;;;8.93;2.20;;;14.10;99.90;;;;;;4969802;28;20384;-72
2021/05/17 06:54:44;;;;;;;6.57;1.90;;;14.20;99.90;;;;;;4966224;28;20020;-73
2021/05/17 06:57:24;;;;;;;4.78;2.00;;;14.20;99.90;;;;;;4971146;28;20035;-72
2021/05/17 06:59:55;;;;;;;3.55;1.70;;;14.30;99.90;;;;;;4970205;28;20073;-72
2021/05/17 07:02:22;;;;;;;7.35;1.80;;;14.40;99.90;;;;;;4977973;28;20023;-72
2021/05/17 07:04:53;;;;;;;5.35;1.48;;;14.40;99.90;;;;;;4977497;28;20022;-74
2021/05/17 07:12:49;;;;;;;4.88;1.30;;;14.40;99.90;;;;;;4963398;28;20567;-76
2021/05/17 07:15:15;;;;;;;4.93;1.48;;;14.40;99.90;;;;;;4963848;28;20023;-73
2021/05/17 07:17:44;;;;;;;5.57;1.80;;;14.30;99.90;;;;;;4962702;28;20077;-77
2021/05/17 07:20:15;;;;;;;4.68;1.42;;;14.20;99.90;;;;;;4973769;28;20046;-76
2021/05/17 07:25:25;;;;;;;4.47;1.80;;;14.10;99.90;;;;;;4968975;28;20687;-80
2021/05/17 07:27:51;;;;;;;4.38;1.63;;;14.10;99.90;;;;;;4973923;28;20039;-76
2021/05/17 07:30:18;;;;;;;3.40;1.58;;;14.10;99.90;;;;;;4963129;28;20047;-76
2021/05/17 07:32:44;;;;;;;4.13;2.00;;;14.10;99.90;;;;;;4967649;28;20019;-76
2021/05/17 07:35:10;;;;;;;6.43;2.35;;;14.20;99.90;;;;;;4972678;28;20026;-77
2021/05/17 07:37:36;;;;;;;3.60;1.98;;;14.30;99.90;;;;;;4968721;28;20039;-73
2021/05/17 07:40:03;;;;;;;3.72;1.63;;;14.30;99.90;;;;;;4975902;28;20478;-75
2021/05/17 07:42:28;;;;;;;4.95;2.22;;;14.30;99.90;;;;;;4967544;28;20065;-75
2021/05/17 07:44:54;;;;;;;3.40;1.73;;;14.40;99.90;;;;;;4969949;28;20055;-74
2021/05/17 07:47:20;;;;;;;7.18;2.05;;;14.50;99.90;;;;;;4967555;28;20033;-75
2021/05/17 07:49:53;;;;;;;5.10;2.53;;;14.60;99.90;;;;;;4978608;28;20041;-72
2021/05/17 07:52:19;;;;;;;3.72;2.05;;;14.60;99.90;;;;;;4975907;28;20530;-76
2021/05/17 07:54:44;;;;;;;5.55;1.90;;;14.80;99.90;;;;;;4968442;28;20154;-73
2021/05/17 07:57:10;;;;;;;5.43;1.95;;;14.80;99.90;;;;;;4977878;28;20042;-73
2021/05/17 07:59:36;;;;;;;6.45;2.00;;;14.80;99.90;;;;;;4963191;28;20385;-73
2021/05/17 08:02:01;;;;;;;4.38;1.90;;;14.90;99.90;;;;;;4965458;28;20034;-76
2021/05/17 08:04:27;;;;;;;4.90;1.98;;;14.90;99.90;;;;;;4966167;28;20514;-79
2021/05/17 08:06:55;;;;;;;5.40;2.10;;;14.90;99.90;;;;;;4964168;28;20476;-83
2021/05/17 08:09:21;;;;;;;4.82;2.15;;;15.00;99.90;;;;;;4970175;28;20084;-76
2021/05/17 08:11:49;;;;;;;4.50;1.90;;;15.00;99.90;;;;;;4956786;28;20033;-80
2021/05/17 08:14:15;;;;;;;5.78;2.35;;;14.90;99.90;;;;;;4966218;28;20040;-77
2021/05/17 08:16:41;;;;;;;8.40;2.65;;;14.80;99.90;;;;;;4967080;28;20030;-75
2021/05/17 08:19:07;;;;;;;8.73;2.55;;;14.80;99.90;;;;;;4962609;28;20043;-74
2021/05/17 08:21:33;;;;;;;8.77;2.28;;;14.70;99.90;;;;;;4973894;28;20486;-77
2021/05/17 08:23:59;;;;;;;5.40;2.13;;;14.80;99.90;;;;;;4972830;28;20025;-78
2021/05/17 08:26:25;;;;;;;7.55;2.88;;;14.80;99.90;;;;;;4970372;28;20487;-76
2021/05/17 08:28:53;;;;;;;7.05;2.72;;;14.80;99.90;;;;;;4961141;28;20031;-77
2021/05/17 08:31:21;;;;;;;10.35;3.15;;;14.80;99.90;;;;;;4967306;28;20065;-75
2021/05/17 08:33:47;;;;;;;4.90;2.50;;;14.70;99.90;;;;;;4976002;28;20019;-77
2021/05/17 08:36:14;;;;;;;4.88;2.72;;;14.70;99.90;;;;;;4969968;28;20503;-75
2021/05/17 08:38:40;;;;;;;5.60;2.55;;;14.70;99.90;;;;;;4970003;28;20106;-74
2021/05/17 08:41:07;;;;;;;6.00;2.58;;;14.70;99.90;;;;;;4970433;28;20033;-75
2021/05/17 08:43:37;;;;;;;8.02;2.58;;;14.80;99.90;;;;;;4965934;28;20022;-76
2021/05/17 08:46:03;;;;;;;8.35;2.80;;;14.70;99.90;;;;;;4970894;28;20042;-76
2021/05/17 08:48:28;;;;;;;7.03;2.80;;;14.70;99.90;;;;;;4965520;28;20042;-74
2021/05/17 08:50:54;;;;;;;7.07;2.70;;;14.70;99.90;;;;;;4976542;28;20614;-77
2021/05/17 08:53:20;;;;;;;6.80;2.95;;;14.80;99.90;;;;;;4968205;28;20110;-75
2021/05/17 08:55:46;;;;;;;6.20;2.55;;;15.00;99.90;;;;;;4966901;28;20046;-73
2021/05/17 08:58:11;;;;;;;6.82;2.85;;;15.00;99.90;;;;;;4971671;28;20030;-74
2021/05/17 09:00:37;;;;;;;5.28;2.58;;;14.90;99.90;;;;;;4964071;28;20692;-74
2021/05/17 09:03:03;;;;;;;5.18;2.33;;;15.00;99.90;;;;;;4969427;28;20016;-74
2021/05/17 09:05:35;;;;;;;5.10;2.40;;;15.10;99.90;;;;;;4966367;28;20039;-77
2021/05/17 09:08:04;;;;;;;8.02;2.35;;;14.90;99.90;;;;;;4966728;28;20023;-73
2021/05/17 09:10:35;;;;;;;4.15;2.35;;;14.90;99.90;;;;;;4955775;28;20027;-76
2021/05/17 09:13:03;;;;;;;5.53;1.80;;;14.90;99.90;;;;;;4970080;28;20027;-74
2021/05/17 09:15:48;;;;;;;4.30;2.25;;;15.00;99.90;;;;;;4968096;28;20391;-74
2021/05/17 09:18:28;;;;;;;3.50;2.13;;;14.90;99.90;;;;;;4966124;28;20197;-76
2021/05/17 09:20:55;;;;;;;5.80;1.70;;;15.10;99.90;;;;;;4957716;28;20403;-85
2021/05/17 09:23:21;;;;;;;7.78;2.17;;;15.30;99.90;;;;;;4971016;28;20067;-78
2021/05/17 09:26:01;;;;;;;4.97;1.92;;;15.40;99.90;;;;;;4969806;28;20488;-77
2021/05/17 09:28:31;;;;;;;3.45;1.98;;;15.50;99.90;;;;;;4963624;28;20050;-74
2021/05/17 09:31:03;;;;;;;3.20;1.60;;;15.60;99.90;;;;;;4967002;28;20075;-74
2021/05/17 09:33:37;;;;;;;2.83;1.58;;;15.50;99.90;;;;;;4975216;28;20035;-74
2021/05/17 09:36:05;;;;;;;3.83;2.05;;;15.60;99.90;;;;;;4964577;28;20085;-76
2021/05/17 09:38:31;;;;;;;5.20;1.95;;;15.60;99.90;;;;;;4956113;28;20027;-75
2021/05/17 09:41:08;;;;;;;2.40;1.88;;;15.60;99.90;;;;;;4954150;28;20035;-78
2021/05/17 09:43:34;;;;;;;2.65;1.83;;;15.60;99.90;;;;;;4960792;28;20166;-73
2021/05/17 09:46:01;;;;;;;7.82;6.60;;;15.60;99.90;;;;;;4970411;28;20030;-77
2021/05/17 09:48:30;;;;;;;5.07;2.35;;;15.50;99.90;;;;;;4962623;28;20031;-78
2021/05/17 09:51:08;;;;;;;5.55;1.85;;;15.50;99.90;;;;;;4974856;28;21010;-77
2021/05/17 09:53:41;;;;;;;4.30;2.33;;;15.40;99.90;;;;;;4974383;28;20467;-78
2021/05/17 09:56:25;;;;;;;6.97;2.65;;;15.30;99.90;;;;;;4978811;28;20034;-78
2021/05/17 09:59:04;;;;;;;4.18;2.47;;;15.10;99.90;;;;;;4979390;28;20499;-76
2021/05/17 10:01:30;;;;;;;3.78;2.90;;;15.10;99.90;;;;;;4973261;28;20113;-79
2021/05/17 10:04:06;;;;;;;4.68;2.90;;;14.90;99.90;;;;;;4966747;28;20081;-77
2021/05/17 10:06:33;;;;;;;10.25;3.63;;;14.90;99.90;;;;;;4964903;28;20032;-75
2021/05/17 10:08:59;;;;;;;5.70;2.85;;;14.90;99.90;;;;;;4958516;28;20031;-77
2021/05/17 10:11:27;;;;;;;4.30;2.65;;;14.90;99.90;;;;;;4970035;28;20022;-76
2021/05/17 10:13:53;;;;;;;5.65;2.30;;;14.90;99.90;;;;;;4960512;28;20023;-81
2021/05/17 10:16:21;;;;;;;4.82;2.83;;;14.80;99.90;;;;;;4960144;28;20085;-80
2021/05/17 10:18:47;;;;;;;5.45;2.15;;;14.80;99.90;;;;;;4965863;28;20035;-79
2021/05/17 10:21:16;;;;;;;4.53;2.20;;;14.80;99.90;;;;;;4969895;28;20022;-79
2021/05/17 10:23:43;;;;;;;3.97;2.33;;;14.80;99.90;;;;;;4962639;28;20093;-78
2021/05/17 10:26:13;;;;;;;4.03;2.33;;;14.90;99.90;;;;;;4962860;28;20019;-80
2021/05/17 10:28:43;;;;;;;5.30;2.78;;;14.90;99.90;;;;;;4965365;28;20432;-77
2021/05/17 10:31:19;;;;;;;8.50;2.90;;;14.80;99.90;;;;;;4966533;28;20047;-76
2021/05/17 10:34:06;;;;;;;3.92;2.70;;;14.80;99.90;;;;;;4968949;28;20130;-78
2021/05/17 10:36:53;;;;;;;7.97;2.85;;;14.90;99.90;;;;;;4962803;28;20022;-78
2021/05/17 10:39:41;;;;;;;6.18;3.70;;;14.90;99.90;;;;;;4969643;28;20116;-77
2021/05/17 10:48:15;;;;;;;8.73;4.63;;;15.10;99.90;;;;;;4963784;28;20049;-77
2021/05/17 10:50:43;;;;;;;10.63;4.97;;;15.10;99.90;;;;;;4966760;28;20154;-80
2021/05/17 10:53:54;;;;;;;7.05;4.93;;;15.20;99.90;;;;;;4967247;28;20023;-75
2021/05/17 10:56:41;;;;;;;8.30;6.03;;;15.20;99.90;;;;;;4957721;28;20040;-81
2021/05/17 11:02:10;;;;;;;10.23;6.38;;;15.30;99.90;;;;;;4971339;28;20167;-82
2021/05/17 11:04:38;;;;;;;8.60;6.72;;;15.30;99.90;;;;;;4971664;28;20026;-80
2021/05/17 11:07:09;;;;;;;8.88;6.60;;;15.30;99.90;;;;;;4968771;28;20018;-82
2021/05/17 11:09:47;;;;;;;10.52;7.05;;;15.30;99.90;;;;;;4964820;28;20591;-78
2021/05/17 11:12:28;;;;;;;9.27;7.35;;;15.10;99.90;;;;;;4970570;28;20037;-78
2021/05/17 11:15:09;;;;;;;7.45;6.57;;;15.10;99.90;;;;;;4974166;28;20430;-79
2021/05/17 11:17:54;;;;;;;7.85;7.07;;;15.20;99.90;;;;;;4966961;28;20398;-79
2021/05/17 11:20:38;;;;;;;11.20;8.23;;;15.20;99.90;;;;;;4975641;28;20034;-77
2021/05/17 11:23:07;;;;;;;9.15;8.00;;;15.30;99.90;;;;;;4974490;28;20030;-77
2021/05/17 11:25:49;;;;;;;11.40;9.05;;;15.40;99.90;;;;;;4973123;28;20030;-77
2021/05/17 11:28:18;;;;;;;15.05;10.98;;;15.50;99.90;;;;;;4962636;28;20123;-76
2021/05/17 11:30:46;;;;;;;14.70;12.48;;;15.60;99.90;;;;;;4967623;28;20038;-79
2021/05/17 11:33:19;;;;;;;15.15;11.50;;;15.60;99.90;;;;;;4972511;28;20019;-77
2021/05/17 11:36:14;;;;;;;14.00;12.15;;;15.70;99.90;;;;;;4971506;28;20027;-76
2021/05/17 11:39:07;;;;;;;20.85;12.35;;;15.70;99.90;;;;;;4967040;28;20035;-77
2021/05/17 11:41:40;;;;;;;17.17;12.02;;;15.60;99.90;;;;;;4970735;28;20026;-74
2021/05/17 11:44:09;;;;;;;13.90;11.43;;;15.50;99.90;;;;;;4970623;28;20045;-75
2021/05/17 11:46:40;;;;;;;12.93;10.57;;;15.60;99.90;;;;;;4974538;28;20019;-72
2021/05/17 11:49:11;;;;;;;14.68;9.15;;;15.70;99.90;;;;;;4974657;28;20034;-75
2021/05/17 11:51:37;;;;;;;16.63;9.95;;;15.70;99.90;;;;;;4975180;28;20018;-73
2021/05/17 11:54:04;;;;;;;13.65;8.95;;;15.80;99.90;;;;;;4974767;28;20083;-73
2021/05/17 11:56:47;;;;;;;12.93;8.80;;;15.90;99.90;;;;;;4975336;28;20033;-77
2021/05/17 11:59:24;;;;;;;14.38;8.55;;;15.90;99.90;;;;;;4975846;28;20041;-74
2021/05/17 12:01:53;;;;;;;12.10;8.07;;;16.00;99.90;;;;;;4966241;28;20033;-85
2021/05/17 12:04:23;;;;;;;17.20;9.35;;;15.90;99.90;;;;;;4968835;28;20031;-80
2021/05/17 12:06:57;;;;;;;13.45;7.82;;;15.80;99.90;;;;;;4966752;28;20034;-74
2021/05/17 12:09:30;;;;;;;20.27;8.85;;;15.80;99.90;;;;;;4968749;28;20480;-76
2021/05/17 12:11:58;;;;;;;12.30;7.15;;;15.70;99.90;;;;;;4963703;28;20035;-78
2021/05/17 12:14:24;;;;;;;8.02;5.43;;;15.60;99.90;;;;;;4974241;28;20487;-73
2021/05/17 12:17:20;;;;;;;9.35;5.80;;;15.70;99.90;;;;;;4969190;28;20019;-83
2021/05/17 12:19:51;;;;;;;12.15;6.80;;;15.70;99.90;;;;;;4963708;28;20047;-82
2021/05/17 12:22:39;;;;;;;10.48;6.25;;;15.80;99.90;;;;;;4969145;28;20031;-78
2021/05/17 12:25:15;;;;;;;16.15;7.00;;;15.90;99.90;;;;;;4971136;28;20034;-78
2021/05/17 12:27:42;;;;;;;13.85;8.50;;;16.20;99.90;;;;;;4967771;28;20023;-85
2021/05/17 12:30:10;;;;;;;10.82;7.32;;;16.10;99.90;;;;;;4973937;28;20035;-82
2021/05/17 12:32:43;;;;;;;10.20;7.30;;;16.10;99.90;;;;;;4971632;28;20023;-77
2021/05/17 12:35:16;;;;;;;10.20;6.50;;;16.00;99.90;;;;;;4975315;28;20061;-78
2021/05/17 12:37:49;;;;;;;12.25;7.38;;;16.10;99.90;;;;;;4971648;28;20058;-75
2021/05/17 12:40:32;;;;;;;10.98;6.88;;;16.10;99.90;;;;;;4967378;28;20015;-77
2021/05/17 12:43:04;;;;;;;11.73;7.43;;;16.10;99.90;;;;;;4973291;28;20050;-75
2021/05/17 12:45:31;;;;;;;12.35;7.90;;;16.10;99.90;;;;;;4973960;28;20027;-78
2021/05/17 12:47:58;;;;;;;9.73;7.50;;;16.10;99.90;;;;;;4973115;28;20019;-77
2021/05/17 12:50:26;;;;;;;12.60;8.38;;;16.10;99.90;;;;;;4973738;28;20165;-80
2021/05/17 12:53:11;;;;;;;14.30;7.13;;;16.10;99.90;;;;;;4974570;28;20030;-79
2021/05/17 12:56:00;;;;;;;8.65;7.20;;;16.10;99.90;;;;;;4970870;28;20019;-73
2021/05/17 12:58:40;;;;;;;14.85;7.45;;;16.10;99.90;;;;;;4973407;28;20089;-72
2021/05/17 13:01:20;;;;;;;8.60;5.78;;;16.20;99.90;;;;;;4980234;28;20471;-74
2021/05/17 13:03:54;;;;;;;12.48;6.25;;;16.10;99.90;;;;;;4969929;28;20029;-72
2021/05/17 13:06:22;;;;;;;12.93;6.53;;;16.10;99.90;;;;;;4967807;28;20028;-73
2021/05/17 13:08:51;;;;;;;15.13;7.05;;;16.20;99.90;;;;;;4959812;28;20381;-71
2021/05/17 13:11:24;;;;;;;11.80;6.20;;;16.30;99.90;;;;;;4968643;28;20025;-72
2021/05/17 13:13:59;;;;;;;12.48;5.70;;;16.10;99.90;;;;;;4971148;28;20423;-71
2021/05/17 13:16:34;;;;;;;9.05;4.88;;;15.90;99.90;;;;;;4965579;28;20051;-73
2021/05/17 13:24:54;;;;;;;13.80;6.38;;;15.70;99.90;;;;;;4966770;28;20093;-78
2021/05/17 13:30:15;;;;;;;15.32;7.32;;;15.90;99.90;;;;;;4968804;28;20045;-77